createdAt,value
2022-12-08T00:01:16.880Z,96.37
2022-12-08T00:03:44.546Z,96.65
2022-12-08T00:06:49.919Z,97.07
2022-12-08T00:09:23.383Z,97.67
2022-12-08T00:11:52.509Z,97.87
2022-12-08T00:14:20.593Z,98.13
2022-12-08T00:16:48.057Z,98.36
2022-12-08T00:19:15.669Z,98.07
2022-12-08T00:21:43.075Z,98.34
2022-12-08T00:24:10.469Z,98.31
2022-12-08T00:26:38.061Z,98.11
2022-12-08T00:29:05.834Z,98.39
2022-12-08T00:31:33.349Z,98.02
2022-12-08T00:34:01.180Z,97.93
2022-12-08T00:36:28.673Z,97.80
2022-12-08T00:38:56.967Z,97.96
2022-12-08T00:41:44.047Z,97.68
2022-12-08T00:44:13.577Z,97.89
2022-12-08T00:46:43.498Z,97.80
2022-12-08T00:49:11.257Z,97.87
2022-12-08T00:51:38.678Z,97.27
2022-12-08T00:54:06.647Z,97.54
2022-12-08T00:56:34.211Z,97.31
2022-12-08T00:59:01.564Z,97.31
2022-12-08T01:01:29.400Z,97.27
2022-12-08T01:03:56.896Z,97.09
2022-12-08T01:06:24.558Z,96.93
2022-12-08T01:08:52.000Z,96.85
2022-12-08T01:11:19.534Z,96.67
2022-12-08T01:13:47.593Z,96.73
2022-12-08T01:16:28.065Z,96.47
2022-12-08T01:18:55.686Z,96.51
2022-12-08T01:21:23.389Z,96.30
2022-12-08T01:23:51.105Z,96.08
2022-12-08T01:26:19.067Z,95.99
2022-12-08T01:28:46.890Z,96.21
2022-12-08T01:31:16.984Z,96.04
2022-12-08T01:33:44.719Z,96.24
2022-12-08T01:36:22.229Z,96.36
2022-12-08T01:38:50.095Z,96.53
2022-12-08T01:41:18.903Z,96.29
2022-12-08T01:44:11.002Z,95.97
2022-12-08T01:46:40.001Z,96.20
2022-12-08T01:49:16.358Z,96.24
2022-12-08T01:51:49.533Z,96.38
2022-12-08T01:54:16.929Z,96.45
2022-12-08T01:56:46.717Z,96.37
2022-12-08T01:59:14.068Z,96.31
2022-12-08T02:01:41.531Z,96.21
2022-12-08T02:04:09.097Z,96.31
2022-12-08T02:06:38.647Z,96.24
2022-12-08T02:09:06.715Z,96.39
2022-12-08T02:11:34.644Z,96.77
2022-12-08T02:14:04.285Z,96.97
2022-12-08T02:16:39.356Z,96.86
2022-12-08T02:19:31.775Z,96.88
2022-12-08T02:22:32.244Z,97.00
2022-12-08T02:25:25.913Z,96.75
2022-12-08T02:28:38.504Z,96.91
2022-12-08T02:31:11.021Z,97.04
2022-12-08T02:34:07.792Z,97.13
2022-12-08T02:36:47.645Z,96.89
2022-12-08T02:39:42.889Z,97.02
2022-12-08T02:42:35.154Z,97.13
2022-12-08T02:45:07.384Z,97.08
2022-12-08T02:47:34.879Z,97.27
2022-12-08T02:50:02.815Z,97.26
2022-12-08T02:52:30.549Z,97.37
2022-12-08T02:55:05.788Z,97.49
2022-12-08T02:57:51.995Z,97.40
2022-12-08T03:00:21.038Z,97.67
2022-12-08T03:03:14.574Z,97.88
2022-12-08T03:06:05.774Z,97.98
2022-12-08T03:08:45.314Z,98.11
2022-12-08T03:11:20.549Z,98.71
2022-12-08T03:13:53.443Z,98.71
2022-12-08T03:16:24.784Z,98.91
2022-12-08T03:18:56.360Z,99.10
2022-12-08T03:21:23.822Z,99.43
2022-12-08T03:23:55.489Z,99.68
2022-12-08T03:26:47.076Z,100.00
2022-12-08T03:29:14.520Z,100.00
2022-12-08T03:31:45.061Z,100.00
2022-12-08T03:34:12.524Z,100.00
2022-12-08T03:36:39.909Z,100.00
2022-12-08T03:39:07.572Z,100.00
2022-12-08T03:41:35.032Z,100.00
2022-12-08T03:44:02.492Z,100.00
2022-12-08T03:48:56.783Z,100.00
2022-12-08T03:51:24.485Z,100.00
2022-12-08T03:53:52.020Z,100.00
2022-12-08T03:56:31.205Z,100.00
2022-12-08T03:58:58.756Z,100.00
2022-12-08T04:01:26.296Z,100.00
2022-12-08T04:03:53.980Z,100.00
2022-12-08T04:06:21.527Z,100.00
2022-12-08T04:08:49.076Z,100.00
2022-12-08T04:11:16.867Z,100.00
2022-12-08T04:13:44.554Z,100.00
2022-12-08T04:16:19.914Z,100.00
2022-12-08T04:18:48.013Z,100.00
2022-12-08T04:21:15.819Z,100.00
2022-12-08T04:23:43.379Z,100.00
2022-12-08T04:26:11.144Z,100.00
2022-12-08T04:28:39.112Z,100.00
2022-12-08T04:31:06.796Z,100.00
2022-12-08T04:33:35.442Z,100.00
2022-12-08T04:36:03.790Z,100.00
2022-12-08T04:38:31.676Z,100.00
2022-12-08T04:40:59.559Z,100.00
2022-12-08T04:43:27.085Z,100.00
2022-12-08T04:45:54.734Z,100.00
2022-12-08T04:48:22.123Z,100.00
2022-12-08T04:50:49.719Z,100.00
2022-12-08T04:53:17.372Z,100.00
2022-12-08T04:55:45.025Z,100.00
2022-12-08T04:58:13.931Z,100.00
2022-12-08T05:00:41.559Z,100.00
2022-12-08T05:03:09.262Z,100.00
2022-12-08T05:05:36.679Z,100.00
2022-12-08T05:08:04.406Z,100.00
2022-12-08T05:10:32.435Z,100.00
2022-12-08T05:13:00.415Z,100.00
2022-12-08T05:15:27.972Z,100.00
2022-12-08T05:17:57.315Z,100.00
2022-12-08T05:20:25.214Z,100.00
2022-12-08T05:22:52.831Z,100.00
2022-12-08T05:25:20.406Z,100.00
2022-12-08T05:27:48.033Z,100.00
2022-12-08T05:30:15.748Z,100.00
2022-12-08T05:32:43.146Z,100.00
2022-12-08T05:35:10.830Z,100.00
2022-12-08T05:37:38.339Z,100.00
2022-12-08T05:40:06.778Z,100.00
2022-12-08T05:42:34.320Z,100.00
2022-12-08T05:45:01.898Z,100.00
2022-12-08T05:47:33.155Z,100.00
2022-12-08T05:50:04.066Z,100.00
2022-12-08T05:52:32.461Z,100.00
2022-12-08T05:55:00.144Z,100.00
2022-12-08T05:57:27.568Z,100.00
2022-12-08T05:59:57.232Z,100.00
2022-12-08T06:02:24.817Z,100.00
2022-12-08T06:04:52.462Z,100.00
2022-12-08T06:07:19.903Z,100.00
2022-12-08T06:09:47.697Z,100.00
2022-12-08T06:12:16.261Z,100.00
2022-12-08T06:14:44.392Z,100.00
2022-12-08T06:17:11.865Z,100.00
2022-12-08T06:19:39.445Z,100.00
2022-12-08T06:22:06.939Z,100.00
2022-12-08T06:24:34.847Z,100.00
2022-12-08T06:27:02.360Z,100.00
2022-12-08T06:29:29.991Z,100.00
2022-12-08T06:31:57.480Z,100.00
2022-12-08T06:34:25.001Z,100.00
2022-12-08T06:36:52.690Z,100.00
2022-12-08T06:39:20.232Z,100.00
2022-12-08T06:42:06.280Z,100.00
2022-12-08T06:44:34.429Z,100.00
2022-12-08T06:47:01.885Z,100.00
2022-12-08T06:49:29.384Z,100.00
2022-12-08T06:51:56.986Z,100.00
2022-12-08T06:54:24.344Z,100.00
2022-12-08T06:56:51.846Z,100.00
2022-12-08T06:59:19.729Z,100.00
2022-12-08T07:01:47.197Z,100.00
2022-12-08T07:04:14.624Z,100.00
2022-12-08T07:06:42.040Z,100.00
2022-12-08T07:09:09.764Z,100.00
2022-12-08T07:11:38.735Z,100.00
2022-12-08T07:14:06.149Z,100.00
2022-12-08T07:16:33.705Z,100.00
2022-12-08T07:19:01.385Z,100.00
2022-12-08T07:21:29.256Z,100.00
2022-12-08T07:23:58.065Z,100.00
2022-12-08T07:26:25.783Z,100.00
2022-12-08T07:28:53.246Z,100.00
2022-12-08T07:31:24.930Z,100.00
2022-12-08T07:33:52.820Z,100.00
2022-12-08T07:36:20.608Z,100.00
2022-12-08T07:38:48.169Z,100.00
2022-12-08T07:41:16.825Z,100.00
2022-12-08T07:43:44.396Z,100.00
2022-12-08T07:46:13.375Z,100.00
2022-12-08T07:48:40.937Z,100.00
2022-12-08T07:51:08.571Z,100.00
2022-12-08T07:53:36.346Z,100.00
2022-12-08T07:56:06.689Z,100.00
2022-12-08T07:58:34.334Z,100.00
2022-12-08T08:01:01.955Z,100.00
2022-12-08T08:03:29.828Z,100.00
2022-12-08T08:06:03.579Z,100.00
2022-12-08T08:08:31.634Z,100.00
2022-12-08T08:11:00.045Z,100.00
2022-12-08T08:13:27.504Z,100.00
2022-12-08T08:15:55.157Z,100.00
2022-12-08T08:18:22.761Z,100.00
2022-12-08T08:20:50.353Z,100.00
2022-12-08T08:23:17.799Z,100.00
2022-12-08T08:25:45.201Z,100.00
2022-12-08T08:28:12.705Z,100.00
2022-12-08T08:30:40.432Z,100.00
2022-12-08T08:33:08.176Z,100.00
2022-12-08T08:35:35.963Z,100.00
2022-12-08T08:38:03.560Z,100.00
2022-12-08T08:40:31.133Z,100.00
2022-12-08T08:43:00.940Z,100.00
2022-12-08T08:45:28.496Z,100.00
2022-12-08T08:47:55.897Z,100.00
2022-12-08T08:50:23.345Z,100.00
2022-12-08T08:52:50.773Z,100.00
2022-12-08T08:55:18.284Z,100.00
2022-12-08T08:57:46.158Z,100.00
2022-12-08T09:00:14.657Z,100.00
2022-12-08T09:02:42.967Z,100.00
2022-12-08T09:05:10.405Z,100.00
2022-12-08T09:07:38.127Z,100.00
2022-12-08T09:10:06.388Z,100.00
2022-12-08T09:12:33.925Z,100.00
2022-12-08T09:15:01.508Z,100.00
2022-12-08T09:17:29.071Z,100.00
2022-12-08T09:19:56.550Z,100.00
2022-12-08T09:22:24.111Z,100.00
2022-12-08T09:24:51.777Z,100.00
2022-12-08T09:27:19.361Z,100.00
2022-12-08T09:29:46.915Z,100.00
2022-12-08T09:32:14.351Z,100.00
2022-12-08T09:34:41.808Z,100.00
2022-12-08T09:37:09.518Z,100.00
2022-12-08T09:39:36.982Z,100.00
2022-12-08T09:42:06.877Z,100.00
2022-12-08T09:44:49.854Z,100.00
2022-12-08T09:47:23.266Z,100.00
2022-12-08T09:50:21.216Z,100.00
2022-12-08T09:53:09.042Z,100.00
2022-12-08T09:56:21.671Z,100.00
2022-12-08T09:59:12.342Z,100.00
2022-12-08T10:01:42.076Z,100.00
2022-12-08T10:04:34.053Z,100.00
2022-12-08T10:07:17.063Z,100.00
2022-12-08T10:10:02.073Z,100.00
2022-12-08T10:12:55.045Z,100.00
2022-12-08T10:15:25.645Z,100.00
2022-12-08T10:17:53.123Z,100.00
2022-12-08T10:20:22.802Z,100.00
2022-12-08T10:22:53.188Z,100.00
2022-12-08T10:25:41.659Z,100.00
2022-12-08T10:28:09.118Z,100.00
2022-12-08T10:30:36.678Z,100.00
2022-12-08T10:33:04.105Z,100.00
2022-12-08T10:35:45.171Z,100.00
2022-12-08T10:38:20.710Z,100.00
2022-12-08T10:40:51.095Z,100.00
2022-12-08T10:43:23.042Z,100.00
2022-12-08T10:45:51.343Z,100.00
2022-12-08T10:48:24.529Z,100.00
2022-12-08T10:50:58.797Z,100.00
2022-12-08T10:53:31.093Z,100.00
2022-12-08T10:55:58.369Z,100.00
2022-12-08T10:58:54.229Z,100.00
2022-12-08T11:01:26.422Z,100.00
2022-12-08T11:04:04.564Z,100.00
2022-12-08T11:06:34.473Z,100.00
2022-12-08T11:09:03.189Z,100.00
2022-12-08T11:11:49.981Z,100.00
2022-12-08T11:14:57.304Z,100.00
2022-12-08T11:17:26.835Z,100.00
2022-12-08T11:20:01.426Z,100.00
2022-12-08T11:22:29.425Z,100.00
2022-12-08T11:25:24.936Z,100.00
2022-12-08T11:27:59.889Z,100.00
2022-12-08T11:30:38.382Z,100.00
2022-12-08T11:33:22.523Z,100.00
2022-12-08T11:36:07.362Z,100.00
2022-12-08T11:38:35.543Z,100.00
2022-12-08T11:41:12.455Z,100.00
2022-12-08T11:44:04.144Z,100.00
2022-12-08T11:46:34.986Z,100.00
2022-12-08T11:49:06.600Z,100.00
2022-12-08T11:51:44.382Z,100.00
2022-12-08T11:54:28.271Z,100.00
2022-12-08T11:57:00.101Z,100.00
2022-12-08T11:59:32.401Z,100.00
2022-12-08T12:02:02.028Z,100.00
2022-12-08T12:04:55.088Z,100.00
2022-12-08T12:07:48.344Z,100.00
2022-12-08T12:10:22.395Z,100.00
2022-12-08T12:13:21.282Z,100.00
2022-12-08T12:16:22.370Z,100.00
2022-12-08T12:18:55.611Z,100.00
2022-12-08T12:21:25.979Z,100.00
2022-12-08T12:23:55.746Z,100.00
2022-12-08T12:26:28.329Z,100.00
2022-12-08T12:28:57.539Z,100.00
2022-12-08T12:31:26.959Z,100.00
2022-12-08T12:33:57.099Z,100.00
2022-12-08T12:36:25.684Z,100.00
2022-12-08T12:39:04.268Z,100.00
2022-12-08T12:41:53.484Z,100.00
2022-12-08T12:44:22.941Z,100.00
2022-12-08T12:46:50.368Z,100.00
2022-12-08T12:49:39.889Z,100.00
2022-12-08T12:52:10.771Z,100.00
2022-12-08T12:54:38.255Z,100.00
2022-12-08T12:57:05.562Z,100.00
2022-12-08T13:00:02.615Z,100.00
2022-12-08T13:02:31.079Z,100.00
2022-12-08T13:04:59.997Z,100.00
2022-12-08T13:07:33.166Z,100.00
2022-12-08T13:10:07.374Z,100.00
2022-12-08T13:12:35.153Z,100.00
2022-12-08T13:15:06.253Z,100.00
2022-12-08T13:17:35.669Z,100.00
2022-12-08T13:20:05.918Z,100.00
2022-12-08T13:23:15.138Z,100.00
2022-12-08T13:25:43.132Z,100.00
2022-12-08T13:28:15.998Z,100.00
2022-12-08T13:30:48.982Z,100.00
2022-12-08T13:33:27.496Z,100.00
2022-12-08T13:36:13.151Z,100.00
2022-12-08T13:38:40.637Z,100.00
2022-12-08T13:41:19.161Z,100.00
2022-12-08T13:44:31.142Z,100.00
2022-12-08T13:58:38.860Z,100.00
2022-12-08T14:01:16.821Z,100.00
2022-12-08T14:04:33.812Z,100.00
2022-12-08T14:06:46.918Z,100.00
2022-12-08T14:09:22.309Z,100.00
2022-12-08T14:12:03.442Z,100.00
2022-12-08T14:17:29.776Z,100.00
2022-12-08T14:20:05.517Z,100.00
2022-12-08T14:22:34.944Z,100.00
2022-12-08T14:25:02.699Z,100.00
2022-12-08T14:27:33.708Z,100.00
2022-12-08T14:30:02.702Z,100.00
2022-12-08T14:32:39.711Z,100.00
2022-12-08T14:35:07.351Z,100.00
2022-12-08T14:37:35.712Z,100.00
2022-12-08T14:40:06.917Z,100.00
2022-12-08T14:42:43.739Z,100.00
2022-12-08T14:45:12.973Z,100.00
2022-12-08T14:47:40.341Z,100.00
2022-12-08T14:50:40.486Z,100.00
2022-12-08T14:53:12.959Z,100.00
2022-12-08T14:55:40.414Z,100.00
2022-12-08T14:58:22.203Z,100.00
2022-12-08T15:00:52.206Z,100.00
2022-12-08T15:03:19.808Z,100.00
2022-12-08T15:05:52.248Z,100.00
2022-12-08T15:08:19.656Z,100.00
2022-12-08T15:10:48.310Z,100.00
2022-12-08T15:13:16.489Z,100.00
2022-12-08T15:15:50.465Z,100.00
2022-12-08T15:18:28.593Z,100.00
2022-12-08T15:21:01.340Z,100.00
2022-12-08T15:23:34.779Z,100.00
2022-12-08T15:26:03.832Z,100.00
2022-12-08T15:28:31.959Z,100.00
2022-12-08T15:30:59.716Z,100.00
2022-12-08T15:33:27.258Z,100.00
2022-12-08T15:35:54.744Z,100.00
2022-12-08T15:38:31.607Z,100.00
2022-12-08T15:41:00.081Z,100.00
2022-12-08T15:43:27.605Z,100.00
2022-12-08T15:45:59.566Z,100.00
2022-12-08T15:48:28.895Z,100.00
2022-12-08T15:50:56.565Z,100.00
2022-12-08T15:53:24.040Z,100.00
2022-12-08T15:58:58.144Z,100.00
2022-12-08T16:01:26.529Z,100.00
2022-12-08T16:04:43.813Z,100.00
2022-12-08T16:07:20.306Z,100.00
2022-12-08T16:09:34.402Z,100.00
2022-12-08T16:12:20.616Z,100.00
2022-12-08T16:17:36.120Z,100.00
2022-12-08T16:20:05.498Z,100.00
2022-12-08T16:25:22.152Z,100.00
2022-12-08T16:28:36.964Z,100.00
2022-12-08T16:30:39.626Z,100.00
2022-12-08T16:33:07.253Z,100.00
2022-12-08T16:35:34.664Z,100.00
2022-12-08T16:38:02.442Z,100.00
2022-12-08T16:40:30.530Z,100.00
2022-12-08T16:42:58.242Z,100.00
2022-12-08T16:45:27.651Z,100.00
2022-12-08T16:48:01.068Z,100.00
2022-12-08T16:50:33.049Z,100.00
2022-12-08T16:53:01.528Z,100.00
2022-12-08T16:55:29.072Z,100.00
2022-12-08T16:57:56.954Z,100.00
2022-12-08T17:00:26.372Z,100.00
2022-12-08T17:02:54.090Z,100.00
2022-12-08T17:05:22.563Z,100.00
2022-12-08T17:07:51.328Z,100.00
2022-12-08T17:10:21.172Z,100.00
2022-12-08T17:12:49.111Z,100.00
2022-12-08T17:15:17.798Z,100.00
2022-12-08T17:17:45.236Z,100.00
2022-12-08T17:20:14.952Z,100.00
2022-12-08T17:22:42.353Z,100.00
2022-12-08T17:25:10.241Z,100.00
2022-12-08T17:27:38.764Z,100.00
2022-12-08T17:30:07.574Z,100.00
2022-12-08T17:32:35.400Z,100.00
2022-12-08T17:35:03.437Z,100.00
2022-12-08T17:37:31.068Z,100.00
2022-12-08T17:39:58.538Z,100.00
2022-12-08T17:42:27.290Z,100.00
2022-12-08T17:44:54.925Z,100.00
2022-12-08T17:47:23.246Z,100.00
2022-12-08T17:49:50.822Z,100.00
2022-12-08T17:52:18.417Z,100.00
2022-12-08T17:54:45.868Z,100.00
2022-12-08T17:57:13.258Z,100.00
2022-12-08T17:59:40.944Z,100.00
2022-12-08T18:02:10.161Z,100.00
2022-12-08T18:04:37.566Z,100.00
2022-12-08T18:07:05.326Z,100.00
2022-12-08T18:09:33.769Z,100.00
2022-12-08T18:12:01.441Z,100.00
2022-12-08T18:14:29.020Z,100.00
2022-12-08T18:16:56.607Z,100.00
2022-12-08T18:19:25.010Z,100.00
2022-12-08T18:21:52.795Z,100.00
2022-12-08T18:24:22.462Z,100.00
2022-12-08T18:26:52.160Z,100.00
2022-12-08T18:29:20.514Z,100.00
2022-12-08T18:31:47.983Z,100.00
2022-12-08T18:34:15.313Z,100.00
2022-12-08T18:36:42.844Z,100.00
2022-12-08T18:39:26.660Z,100.00
2022-12-08T18:41:54.343Z,100.00
2022-12-08T18:44:21.686Z,100.00
2022-12-08T18:46:49.160Z,100.00
2022-12-08T18:49:18.787Z,100.00
2022-12-08T18:51:46.236Z,100.00
2022-12-08T18:54:13.657Z,100.00
2022-12-08T18:56:41.152Z,100.00
2022-12-08T18:59:10.571Z,100.00
2022-12-08T19:01:38.919Z,100.00
2022-12-08T19:06:55.148Z,100.00
2022-12-08T19:09:25.490Z,100.00
2022-12-08T19:11:52.961Z,100.00
2022-12-08T19:14:25.865Z,100.00
2022-12-08T19:16:58.577Z,100.00
2022-12-08T19:19:26.636Z,100.00
2022-12-08T19:21:54.397Z,100.00
2022-12-08T19:24:21.938Z,100.00
2022-12-08T19:26:49.548Z,100.00
2022-12-08T19:29:17.207Z,100.00
2022-12-08T19:31:45.043Z,100.00
2022-12-08T19:34:13.532Z,100.00
2022-12-08T19:36:42.664Z,100.00
2022-12-08T19:39:46.762Z,100.00
2022-12-08T19:42:37.859Z,100.00
2022-12-08T19:45:14.033Z,100.00
2022-12-08T19:47:41.603Z,100.00
2022-12-08T19:50:30.903Z,100.00
2022-12-08T19:52:58.685Z,100.00
2022-12-08T19:55:26.230Z,100.00
2022-12-08T19:57:54.803Z,100.00
2022-12-08T20:00:22.777Z,100.00
2022-12-08T20:02:51.519Z,100.00
2022-12-08T20:05:19.152Z,100.00
2022-12-08T20:07:47.145Z,100.00
2022-12-08T20:10:17.429Z,100.00
2022-12-08T20:12:44.987Z,100.00
2022-12-08T20:15:12.669Z,100.00
2022-12-08T20:17:42.020Z,100.00
2022-12-08T20:20:10.651Z,100.00
2022-12-08T20:22:38.563Z,100.00
2022-12-08T20:25:06.702Z,100.00
2022-12-08T20:27:34.844Z,100.00
2022-12-08T20:30:02.216Z,100.00
2022-12-08T20:32:29.798Z,100.00
2022-12-08T20:34:57.331Z,100.00
2022-12-08T20:37:24.740Z,100.00
2022-12-08T20:39:52.776Z,100.00
2022-12-08T20:42:20.466Z,100.00
2022-12-08T20:44:48.215Z,100.00
2022-12-08T20:47:15.937Z,100.00
2022-12-08T20:49:43.705Z,100.00
2022-12-08T20:52:11.302Z,100.00
2022-12-08T20:54:38.890Z,100.00
2022-12-08T20:57:06.671Z,100.00
2022-12-08T20:59:34.551Z,100.00
2022-12-08T21:02:02.599Z,100.00
2022-12-08T21:04:30.680Z,100.00
2022-12-08T21:06:58.217Z,100.00
2022-12-08T21:09:25.971Z,100.00
2022-12-08T21:11:54.109Z,100.00
2022-12-08T21:14:21.742Z,100.00
2022-12-08T21:16:51.182Z,100.00
2022-12-08T21:19:20.305Z,100.00
2022-12-08T21:21:50.854Z,100.00
2022-12-08T21:24:18.724Z,100.00
2022-12-08T21:26:46.519Z,100.00
2022-12-08T21:29:15.251Z,100.00
2022-12-08T21:31:43.192Z,100.00
2022-12-08T21:34:10.844Z,100.00
2022-12-08T21:36:38.507Z,100.00
2022-12-08T21:39:12.029Z,100.00
2022-12-08T21:41:58.092Z,100.00
2022-12-08T21:44:26.174Z,100.00
2022-12-08T21:46:53.870Z,100.00
2022-12-08T21:49:22.403Z,100.00
2022-12-08T21:51:50.059Z,100.00
2022-12-08T21:54:19.239Z,100.00
2022-12-08T21:56:48.101Z,100.00
2022-12-08T21:59:16.122Z,100.00
2022-12-08T22:01:43.912Z,100.00
2022-12-08T22:04:12.673Z,100.00
2022-12-08T22:06:41.230Z,100.00
2022-12-08T22:09:11.772Z,100.00
2022-12-08T22:11:39.266Z,100.00
2022-12-08T22:14:12.566Z,100.00
2022-12-08T22:16:43.089Z,100.00
2022-12-08T22:19:11.135Z,100.00
2022-12-08T22:21:39.190Z,100.00
2022-12-08T22:24:07.096Z,100.00
2022-12-08T22:26:34.812Z,100.00
2022-12-08T22:29:02.488Z,100.00
2022-12-08T22:31:30.436Z,100.00
2022-12-08T22:33:58.666Z,100.00
2022-12-08T22:36:26.944Z,100.00
2022-12-08T22:38:54.746Z,100.00
2022-12-08T22:41:22.454Z,100.00
2022-12-08T22:43:50.424Z,100.00
2022-12-08T22:46:27.385Z,100.00
2022-12-08T22:48:55.219Z,100.00
2022-12-08T22:51:23.034Z,100.00
2022-12-08T22:53:50.767Z,100.00
2022-12-08T22:56:18.640Z,100.00
2022-12-08T22:58:46.458Z,100.00
2022-12-08T23:01:29.257Z,100.00
2022-12-08T23:03:57.763Z,100.00
2022-12-08T23:06:25.736Z,100.00
2022-12-08T23:08:53.639Z,100.00
2022-12-08T23:11:22.253Z,100.00
2022-12-08T23:13:50.306Z,100.00
2022-12-08T23:16:18.027Z,100.00
2022-12-08T23:18:46.274Z,100.00
2022-12-08T23:21:15.620Z,100.00
2022-12-08T23:23:43.077Z,100.00
2022-12-08T23:26:19.395Z,100.00
2022-12-08T23:28:46.988Z,100.00
2022-12-08T23:31:15.013Z,100.00
2022-12-08T23:33:42.896Z,100.00
2022-12-08T23:36:10.585Z,100.00
2022-12-08T23:38:38.030Z,100.00
2022-12-08T23:41:06.631Z,100.00
2022-12-08T23:43:34.552Z,100.00
2022-12-08T23:46:02.765Z,100.00
2022-12-08T23:48:34.631Z,100.00
2022-12-08T23:51:02.594Z,100.00
2022-12-08T23:53:30.734Z,100.00
2022-12-08T23:56:08.468Z,100.00
2022-12-08T23:58:36.381Z,100.00
